Terminal Aerodrome Forecast
Issued by NWS

Home | Current Version | Previous Version | Graphics & Text | Print | Product List | Glossary On
Versions: 1 2 3 4 5 6 7 8 9 10 11 12 13 14 15 16 17 18 19 20 21 22 23 24 25 26 27 28 29
000
FTUS43 KLOT 222040 AAA
TAFMDW
TAF AMD
KMDW 222040Z 2221/2324 06013KT P6SM OVC030
     FM222300 07013KT P6SM BKN015 OVC025
     FM230300 12012KT P6SM VCSH OVC008
     FM230700 15009KT 4SM -RA BR BKN004 OVC008
     FM231300 20007KT 5SM BR OVC008
     FM231600 23011KT P6SM OVC015
     FM231900 26012G18KT P6SM SCT020 BKN040=

USA.gov is the U.S. government's official web portal to all federal, state and local government web resources and services.